Time;durP1;ratioP1;P1;durP2;ratioP2;P2;SDS_P1;SDS_P2;PMS_P1;PMS_P2;Temp;Humidity;BMP_temperature;BMP_pressure;BME280_temperature;BME280_humidity;BME280_pressure;Samples;Min_cycle;Max_cycle;Signal;HPM_P1;HPM_P2
2023/10/28 00:01:32;;;;;;;16.90;3.58;;;;;;;13.51;97.36;99137.38;5061846;28;20059;-57
2023/10/28 00:04:02;;;;;;;21.42;4.38;;;;;;;13.69;97.14;99137.63;5076487;28;20059;-55
2023/10/28 00:06:29;;;;;;;13.82;2.63;;;;;;;13.72;96.61;99143.22;5074997;28;20063;-57
2023/10/28 00:08:56;;;;;;;15.82;3.60;;;;;;;13.66;97.25;99135.63;5075217;28;20052;-56
2023/10/28 00:11:24;;;;;;;18.70;3.55;;;;;;;13.61;96.23;99125.69;5074725;28;20048;-55
2023/10/28 00:13:52;;;;;;;16.60;3.00;;;;;;;13.50;96.31;99122.75;5074697;28;20061;-56
2023/10/28 00:16:19;;;;;;;15.88;3.40;;;;;;;13.61;97.26;99131.22;5077619;28;20048;-56
2023/10/28 00:18:46;;;;;;;14.77;2.92;;;;;;;13.52;96.14;99127.91;5082945;28;20064;-55
2023/10/28 00:21:17;;;;;;;15.60;3.25;;;;;;;13.63;97.14;99130.84;5075629;28;20057;-56
2023/10/28 00:23:46;;;;;;;20.40;3.35;;;;;;;13.55;96.16;99124.38;5090610;28;20052;-56
2023/10/28 00:26:13;;;;;;;18.40;3.78;;;;;;;13.60;96.40;99118.53;5075138;28;20055;-55
2023/10/28 00:28:42;;;;;;;14.00;3.15;;;;;;;13.46;97.01;99123.84;5075191;28;20510;-56
2023/10/28 00:31:17;;;;;;;13.50;3.25;;;;;;;13.61;97.42;99125.69;5073939;28;20509;-54
2023/10/28 00:33:45;;;;;;;17.95;3.97;;;;;;;13.63;96.34;99108.69;5059539;28;20079;-56
2023/10/28 00:36:16;;;;;;;15.38;3.03;;;;;;;13.62;97.59;99120.91;5074081;28;20451;-62
2023/10/28 00:38:43;;;;;;;16.85;3.67;;;;;;;13.35;97.76;99106.28;5075296;28;20048;-62
2023/10/28 00:41:11;;;;;;;18.60;3.55;;;;;;;13.50;99.29;99114.44;5078246;28;20041;-63
2023/10/28 00:43:42;;;;;;;18.98;3.00;;;;;;;13.67;98.80;99106.78;5083504;28;20062;-63
2023/10/28 00:46:09;;;;;;;17.35;3.15;;;;;;;13.54;97.45;99104.25;5094943;28;20055;-62
2023/10/28 00:48:37;;;;;;;18.75;3.75;;;;;;;13.75;99.24;99112.06;5070691;28;20068;-64
2023/10/28 00:51:04;;;;;;;16.60;3.47;;;;;;;13.54;97.96;99103.44;5085903;28;20427;-62
2023/10/28 00:53:33;;;;;;;18.83;3.05;;;;;;;13.36;98.01;99100.38;5060742;28;20064;-63
2023/10/28 00:56:01;;;;;;;11.82;2.33;;;;;;;13.42;99.77;99090.59;5072523;28;20056;-54
2023/10/28 00:58:33;;;;;;;16.20;3.00;;;;;;;13.49;99.50;99095.47;5074580;28;20048;-56
2023/10/28 01:01:00;;;;;;;14.85;2.60;;;;;;;13.44;99.03;99087.47;5074585;28;20041;-64
2023/10/28 01:03:30;;;;;;;13.18;2.88;;;;;;;13.26;99.41;99089.97;5074382;28;20056;-55
2023/10/28 01:05:58;;;;;;;13.50;3.10;;;;;;;13.28;100.00;99089.59;5081245;28;20044;-64
2023/10/28 01:08:25;;;;;;;16.30;3.00;;;;;;;13.45;100.00;99089.06;5077391;28;20055;-63
2023/10/28 01:10:59;;;;;;;12.65;2.92;;;;;;;13.43;100.00;99089.44;5057462;28;20052;-64
2023/10/28 01:13:27;;;;;;;18.45;3.13;;;;;;;13.38;100.00;99094.47;5073580;28;20553;-62
2023/10/28 01:15:54;;;;;;;15.95;3.25;;;;;;;13.60;100.00;99098.38;5074692;28;20052;-61
2023/10/28 01:18:23;;;;;;;16.27;3.22;;;;;;;13.33;99.54;99087.31;5076763;28;20059;-62
2023/10/28 01:20:51;;;;;;;18.52;3.78;;;;;;;13.53;100.00;99083.25;5074634;28;20056;-62
2023/10/28 01:23:18;;;;;;;19.90;3.08;;;;;;;13.55;99.17;99094.75;5074652;28;20041;-57
2023/10/28 01:25:45;;;;;;;17.48;3.33;;;;;;;13.61;99.21;99086.13;5074891;28;20063;-56
2023/10/28 01:28:13;;;;;;;13.43;3.20;;;;;;;13.68;99.88;99080.72;5055296;28;20044;-55
2023/10/28 01:30:40;;;;;;;12.27;2.47;;;;;;;13.75;97.47;99081.63;5074701;28;20048;-63
2023/10/28 01:33:07;;;;;;;14.38;2.55;;;;;;;13.58;98.58;99071.09;5061251;28;20079;-57
2023/10/28 01:35:35;;;;;;;14.25;3.10;;;;;;;13.61;99.72;99075.06;5060884;28;20049;-55
2023/10/28 01:38:04;;;;;;;18.33;2.90;;;;;;;13.47;100.00;99076.47;5072396;28;20041;-61
2023/10/28 01:40:33;;;;;;;17.05;3.00;;;;;;;13.45;99.49;99073.28;5074374;28;20048;-63
2023/10/28 01:43:01;;;;;;;13.82;2.92;;;;;;;13.57;100.00;99061.19;5074459;28;20403;-57
2023/10/28 01:45:29;;;;;;;17.65;3.30;;;;;;;13.63;100.00;99068.00;5074291;28;20052;-58
2023/10/28 01:47:58;;;;;;;16.58;2.33;;;;;;;13.62;100.00;99073.88;5073741;28;20049;-55
2023/10/28 01:50:25;;;;;;;19.08;2.85;;;;;;;13.56;99.92;99065.13;5073144;28;20053;-62
2023/10/28 01:52:53;;;;;;;21.55;3.40;;;;;;;13.52;99.43;99073.38;5073201;28;20048;-63
2023/10/28 01:55:20;;;;;;;14.05;3.80;;;;;;;13.42;100.00;99071.22;5069864;28;20049;-64
2023/10/28 01:57:47;;;;;;;14.15;2.88;;;;;;;13.61;100.00;99069.53;5073268;28;20528;-62
2023/10/28 02:00:17;;;;;;;17.25;3.13;;;;;;;13.56;100.00;99074.22;5072424;28;20055;-64
2023/10/28 02:02:47;;;;;;;17.67;3.37;;;;;;;13.50;100.00;99070.19;5072519;28;20053;-64
2023/10/28 02:05:15;;;;;;;;;;;;;;;13.57;100.00;99061.19;5073993;28;20051;-63
2023/10/28 02:07:43;;;;;;;18.75;3.53;;;;;;;13.73;99.84;99067.34;5055074;28;19921;-63
2023/10/28 02:10:10;;;;;;;15.85;3.25;;;;;;;13.58;100.00;99068.34;5072188;28;20044;-64
2023/10/28 02:12:38;;;;;;;13.02;2.60;;;;;;;13.64;100.00;99064.06;5072243;28;20071;-58
2023/10/28 02:15:08;;;;;;;17.27;3.45;;;;;;;13.74;100.00;99060.63;5060323;28;20052;-63
2023/10/28 02:17:36;;;;;;;16.30;3.00;;;;;;;13.51;99.85;99055.16;5076181;28;20060;-55
2023/10/28 02:20:05;;;;;;;13.55;2.72;;;;;;;13.55;100.00;99056.03;5077774;28;20052;-55
2023/10/28 02:22:32;;;;;;;13.20;2.92;;;;;;;13.44;100.00;99059.81;5076841;28;20055;-57
2023/10/28 02:24:59;;;;;;;20.05;3.95;;;;;;;13.48;100.00;99044.06;5087324;28;20044;-58
2023/10/28 02:27:27;;;;;;;14.93;2.72;;;;;;;13.49;99.57;99048.44;5055349;28;20057;-57
2023/10/28 02:29:54;;;;;;;19.20;3.15;;;;;;;13.45;100.00;99048.38;5075428;28;20554;-56
2023/10/28 02:32:21;;;;;;;12.07;2.22;;;;;;;13.47;100.00;99034.19;5072792;28;20048;-55
2023/10/28 02:34:49;;;;;;;14.85;2.70;;;;;;;13.53;100.00;99032.66;5073251;28;20058;-55
2023/10/28 02:37:16;;;;;;;13.13;2.30;;;;;;;13.55;100.00;99031.13;5072922;28;20384;-56
2023/10/28 02:39:44;;;;;;;18.80;3.15;;;;;;;13.58;100.00;99033.16;5071266;28;20742;-57
2023/10/28 02:42:11;;;;;;;10.82;2.53;;;;;;;13.41;99.83;99027.34;5071230;28;20060;-58
2023/10/28 02:44:38;;;;;;;12.07;2.63;;;;;;;13.56;100.00;99032.72;5076813;28;20056;-57
2023/10/28 02:47:06;;;;;;;14.25;2.80;;;;;;;13.58;99.08;99035.13;5054173;28;20044;-57
2023/10/28 02:49:36;;;;;;;13.73;2.30;;;;;;;13.63;99.19;99034.81;5071965;28;20052;-56
2023/10/28 02:52:04;;;;;;;14.98;3.10;;;;;;;13.57;100.00;99030.75;5071406;28;20059;-57
2023/10/28 02:54:31;;;;;;;16.52;3.17;;;;;;;13.62;99.06;99018.56;5078311;28;20055;-57
2023/10/28 02:56:59;;;;;;;14.35;2.58;;;;;;;13.60;99.15;99032.00;5071364;28;20115;-57
2023/10/28 02:59:27;;;;;;;14.20;2.75;;;;;;;13.68;99.58;99017.88;5085869;28;20055;-57
2023/10/28 03:01:55;;;;;;;15.48;2.88;;;;;;;13.63;98.80;99006.34;5093366;28;20052;-58
2023/10/28 03:04:23;;;;;;;11.70;2.25;;;;;;;13.78;98.56;99016.41;5073488;28;20057;-57
2023/10/28 03:06:51;;;;;;;12.68;2.85;;;;;;;13.52;98.04;99020.03;5072775;28;20059;-63
2023/10/28 03:09:19;;;;;;;12.48;2.53;;;;;;;13.41;98.77;99025.41;5078513;28;20041;-63
2023/10/28 03:11:46;;;;;;;11.88;1.88;;;;;;;13.35;98.97;99032.41;5074912;28;20055;-57
2023/10/28 03:14:14;;;;;;;12.65;2.38;;;;;;;13.32;99.73;99030.38;5071542;28;20057;-64
2023/10/28 03:16:44;;;;;;;17.13;3.15;;;;;;;13.27;99.83;99035.44;5026966;28;20057;-62
2023/10/28 03:19:11;;;;;;;;;;;;;;;13.28;100.00;99051.69;5068636;28;20049;-63
2023/10/28 03:21:39;;;;;;;9.98;1.95;;;;;;;13.53;100.00;99055.59;5079685;28;19924;-63
2023/10/28 03:24:07;;;;;;;13.38;2.60;;;;;;;13.47;98.85;99043.28;5079449;28;20044;-63
2023/10/28 03:26:35;;;;;;;11.55;2.10;;;;;;;13.32;100.00;99044.22;5079312;28;20056;-64
2023/10/28 03:29:02;;;;;;;12.65;2.53;;;;;;;13.26;100.00;99054.00;5077938;28;20040;-63
2023/10/28 03:31:30;;;;;;;14.63;3.10;;;;;;;13.29;100.00;99042.19;5079667;28;20037;-63
2023/10/28 03:33:58;;;;;;;18.58;3.20;;;;;;;13.22;100.00;99041.28;5076851;28;20075;-63
2023/10/28 03:36:25;;;;;;;10.65;2.00;;;;;;;13.21;100.00;99043.28;5079408;28;20060;-63
2023/10/28 03:38:52;;;;;;;11.77;2.58;;;;;;;13.19;99.70;99048.38;5077707;28;20055;-63
2023/10/28 03:41:20;;;;;;;17.08;2.50;;;;;;;13.23;100.00;99048.44;5079185;28;20044;-63
2023/10/28 03:43:47;;;;;;;14.18;3.05;;;;;;;13.15;100.00;99047.50;5063357;28;20045;-62
2023/10/28 03:46:18;;;;;;;14.00;2.28;;;;;;;13.28;100.00;99048.91;5072796;28;20048;-63
2023/10/28 03:48:45;;;;;;;11.63;2.08;;;;;;;13.27;99.69;99040.97;5071394;28;20052;-57
2023/10/28 03:51:16;;;;;;;14.85;2.40;;;;;;;13.27;99.37;99043.72;5073477;28;20060;-56
2023/10/28 03:53:44;;;;;;;9.95;2.42;;;;;;;13.41;99.52;99058.59;5060234;28;20060;-57
2023/10/28 03:56:12;;;;;;;11.48;2.60;;;;;;;13.31;100.00;99050.94;5091167;28;20542;-57
2023/10/28 03:58:39;;;;;;;11.15;2.28;;;;;;;13.22;99.40;99069.75;5063403;28;20060;-65
2023/10/28 04:01:06;;;;;;;10.30;2.22;;;;;;;13.38;100.00;99067.63;5077176;28;20449;-64
2023/10/28 04:03:34;;;;;;;10.73;2.13;;;;;;;13.29;99.37;99064.31;5077592;28;20044;-57
2023/10/28 04:06:01;;;;;;;11.38;2.58;;;;;;;13.56;100.00;99078.97;5098367;28;20052;-57
2023/10/28 04:08:33;;;;;;;12.85;2.38;;;;;;;13.34;98.05;99074.25;5098166;28;20479;-53
2023/10/28 04:11:00;;;;;;;11.23;2.28;;;;;;;13.49;100.00;99076.09;5095502;28;20056;-56
2023/10/28 04:13:28;;;;;;;11.23;2.05;;;;;;;13.32;99.12;99073.84;5068337;28;20059;-56
2023/10/28 04:15:55;;;;;;;13.25;2.30;;;;;;;13.36;99.28;99081.03;5080173;28;20463;-58
2023/10/28 04:18:23;;;;;;;14.60;2.50;;;;;;;13.41;98.41;99079.91;5078787;28;20060;-57
2023/10/28 04:20:50;;;;;;;16.08;2.80;;;;;;;13.30;98.88;99081.72;5077913;28;20040;-56
2023/10/28 04:23:18;;;;;;;11.75;2.83;;;;;;;13.31;99.76;99086.88;5077378;28;20060;-63
2023/10/28 04:25:45;;;;;;;17.90;2.88;;;;;;;13.52;99.42;99091.94;5077043;28;20052;-63
2023/10/28 04:28:12;;;;;;;14.73;2.55;;;;;;;13.49;99.64;99085.16;5075762;28;20407;-56
2023/10/28 04:30:40;;;;;;;15.60;3.17;;;;;;;13.48;98.63;99082.78;5057114;28;20044;-63
2023/10/28 04:33:07;;;;;;;14.38;2.65;;;;;;;13.36;98.72;99080.22;5075467;28;20053;-63
2023/10/28 04:35:34;;;;;;;10.48;2.10;;;;;;;13.32;98.85;99077.41;5076074;28;20102;-64
2023/10/28 04:38:01;;;;;;;16.27;2.65;;;;;;;13.50;100.00;99081.25;5088841;28;20055;-63
2023/10/28 04:40:29;;;;;;;17.20;2.42;;;;;;;13.41;99.48;99086.25;5082974;28;20044;-64
2023/10/28 04:43:01;;;;;;;13.07;2.45;;;;;;;13.48;99.62;99088.31;5091203;28;20040;-63
2023/10/28 04:45:28;;;;;;;13.63;2.78;;;;;;;13.38;98.72;99095.28;5081038;28;20060;-63
2023/10/28 04:47:55;;;;;;;15.00;2.42;;;;;;;13.46;99.74;99101.72;5075443;28;20053;-63
2023/10/28 04:50:23;;;;;;;17.90;3.33;;;;;;;13.39;98.73;99099.63;5073970;28;20049;-58
2023/10/28 04:52:50;;;;;;;15.27;3.38;;;;;;;13.41;97.65;99093.72;5075585;28;20041;-56
2023/10/28 04:55:17;;;;;;;17.52;2.88;;;;;;;13.17;98.23;99083.88;5086033;28;20055;-50
2023/10/28 04:57:44;;;;;;;17.40;3.10;;;;;;;13.23;98.81;99089.91;5076950;28;20500;-56
2023/10/28 05:00:13;;;;;;;14.50;2.70;;;;;;;13.13;99.10;99088.53;5076804;28;20039;-64
2023/10/28 05:02:40;;;;;;;19.75;3.30;;;;;;;13.30;98.98;99088.03;5089915;28;20045;-63
2023/10/28 05:05:08;;;;;;;15.60;2.75;;;;;;;13.39;98.25;99101.59;5075012;28;20056;-63
2023/10/28 05:07:35;;;;;;;12.52;2.40;;;;;;;13.51;100.00;99096.66;5074660;28;20048;-62
2023/10/28 05:10:03;;;;;;;16.25;2.70;;;;;;;13.30;98.25;99096.31;5073035;28;20048;-63
2023/10/28 05:12:32;;;;;;;17.10;3.30;;;;;;;13.30;99.09;99093.56;5056161;28;20079;-63
2023/10/28 05:14:59;;;;;;;14.30;2.70;;;;;;;13.45;98.62;99095.41;5069030;28;20403;-63
2023/10/28 05:17:27;;;;;;;19.40;3.30;;;;;;;13.52;99.19;99103.00;5074281;28;20048;-63
2023/10/28 05:19:54;;;;;;;15.25;2.80;;;;;;;13.49;97.54;99109.28;5074698;28;20037;-64
2023/10/28 05:22:22;;;;;;;19.48;3.00;;;;;;;13.47;98.75;99106.91;5074773;28;20462;-54
2023/10/28 05:24:52;;;;;;;17.25;3.15;;;;;;;13.39;98.44;99102.41;5074791;28;20748;-56
2023/10/28 05:27:19;;;;;;;21.75;2.92;;;;;;;13.46;97.64;99099.75;5084456;28;20044;-56
2023/10/28 05:29:48;;;;;;;20.45;3.10;;;;;;;13.34;98.13;99107.44;5079134;28;20040;-58
2023/10/28 05:32:15;;;;;;;17.42;3.30;;;;;;;13.41;98.42;99104.78;5085712;28;20071;-58
2023/10/28 05:34:43;;;;;;;16.67;3.08;;;;;;;13.53;98.24;99108.16;5075616;28;20051;-63
2023/10/28 05:37:11;;;;;;;17.33;3.72;;;;;;;13.62;97.93;99112.63;5078804;28;20499;-64
2023/10/28 05:39:40;;;;;;;14.05;3.25;;;;;;;13.48;97.29;99105.72;5073449;28;20040;-56
2023/10/28 05:42:07;;;;;;;16.38;3.22;;;;;;;13.47;97.76;99109.66;5072881;28;20059;-54
2023/10/28 05:44:35;;;;;;;18.05;3.33;;;;;;;13.56;96.58;99114.94;5074649;28;20079;-56
2023/10/28 05:47:07;;;;;;;16.30;2.72;;;;;;;13.41;96.46;99111.13;5072515;28;20052;-62
2023/10/28 05:49:34;;;;;;;20.88;3.05;;;;;;;13.42;97.85;99112.72;5072415;28;20044;-65
2023/10/28 05:52:01;;;;;;;19.15;3.38;;;;;;;13.41;98.00;99115.84;5073073;28;20044;-64
2023/10/28 05:54:30;;;;;;;15.98;2.97;;;;;;;13.42;97.07;99121.00;5078910;28;20106;-64
2023/10/28 05:56:58;;;;;;;20.75;3.85;;;;;;;13.30;97.02;99125.97;5082024;28;20041;-63
2023/10/28 05:59:25;;;;;;;17.65;4.15;;;;;;;13.30;97.87;99135.03;5085969;28;20467;-63
2023/10/28 06:01:52;;;;;;;14.38;3.10;;;;;;;13.48;96.97;99133.38;5093695;28;20048;-64
2023/10/28 06:04:21;;;;;;;15.55;2.97;;;;;;;13.50;96.37;99121.94;5074065;28;20056;-64
2023/10/28 06:06:48;;;;;;;16.48;3.22;;;;;;;13.48;96.77;99129.81;5074144;28;20056;-63
2023/10/28 06:09:15;;;;;;;13.05;3.03;;;;;;;13.45;96.78;99130.56;5073469;28;20048;-63
2023/10/28 06:11:43;;;;;;;14.50;3.42;;;;;;;13.47;97.37;99131.78;5073973;28;20040;-63
2023/10/28 06:14:11;;;;;;;12.13;2.92;;;;;;;13.86;96.94;99124.06;5077263;28;20052;-63
2023/10/28 06:16:39;;;;;;;13.80;3.35;;;;;;;13.66;96.02;99128.13;5072674;28;20048;-64
2023/10/28 06:19:07;;;;;;;16.20;3.15;;;;;;;13.71;97.95;99130.56;5073888;28;20056;-64
2023/10/28 06:21:34;;;;;;;18.33;2.83;;;;;;;13.74;97.56;99131.81;5081067;28;20048;-64
2023/10/28 06:24:02;;;;;;;17.05;2.78;;;;;;;13.71;96.48;99130.56;5077095;28;20056;-64
2023/10/28 06:26:29;;;;;;;16.80;2.85;;;;;;;13.75;98.72;99117.59;5087940;28;20048;-63
2023/10/28 06:28:58;;;;;;;22.67;3.78;;;;;;;13.75;97.29;99119.56;5073594;28;20079;-64
2023/10/28 06:31:26;;;;;;;18.58;2.95;;;;;;;13.69;96.77;99135.66;5073425;28;20052;-63
2023/10/28 06:33:53;;;;;;;18.60;2.90;;;;;;;13.71;97.12;99132.53;5073691;28;20672;-64
2023/10/28 06:36:21;;;;;;;18.25;2.85;;;;;;;13.70;96.34;99134.53;5080417;28;20050;-65
2023/10/28 06:38:48;;;;;;;14.57;2.45;;;;;;;13.73;96.73;99133.75;5077711;28;20059;-64
2023/10/28 06:41:15;;;;;;;14.55;2.92;;;;;;;13.84;98.52;99136.69;5072926;28;20045;-63
2023/10/28 06:43:43;;;;;;;17.00;3.20;;;;;;;13.64;97.14;99141.53;5073422;28;20051;-64
2023/10/28 06:46:10;;;;;;;13.52;2.50;;;;;;;13.96;99.49;99147.53;5073358;28;20044;-64
2023/10/28 06:48:37;;;;;;;14.95;2.53;;;;;;;13.99;97.89;99135.72;5066723;28;20061;-64
2023/10/28 06:51:06;;;;;;;15.02;2.75;;;;;;;14.04;97.71;99141.72;5061893;28;20702;-62
2023/10/28 06:53:34;;;;;;;13.15;2.97;;;;;;;13.98;96.67;99145.97;5071286;28;20068;-63
2023/10/28 06:56:02;;;;;;;17.70;3.03;;;;;;;13.89;96.35;99147.44;5085736;28;20055;-63
2023/10/28 06:58:30;;;;;;;14.00;2.55;;;;;;;13.73;95.71;99149.56;5072599;28;20055;-62
2023/10/28 07:00:57;;;;;;;19.50;3.40;;;;;;;14.03;97.35;99148.44;5050768;28;20069;-62
2023/10/28 07:03:25;;;;;;;20.67;3.15;;;;;;;13.95;95.11;99145.94;5072118;28;20518;-64
2023/10/28 07:05:52;;;;;;;16.60;3.47;;;;;;;14.02;97.51;99152.38;5073076;28;20048;-64
2023/10/28 07:08:20;;;;;;;14.25;3.00;;;;;;;14.11;98.55;99149.31;5071652;28;20048;-63
2023/10/28 07:10:48;;;;;;;19.35;3.08;;;;;;;14.03;96.73;99153.19;5073188;28;20519;-63
2023/10/28 07:13:16;;;;;;;13.48;2.97;;;;;;;14.07;98.68;99165.88;5072601;28;20051;-63
2023/10/28 07:15:44;;;;;;;19.67;3.47;;;;;;;13.94;96.15;99164.53;5070819;28;20462;-63
2023/10/28 07:18:13;;;;;;;13.45;2.65;;;;;;;14.49;98.67;99160.16;5071838;28;20087;-64
2023/10/28 07:20:41;;;;;;;15.95;3.03;;;;;;;14.54;96.88;99157.84;5071352;28;20049;-65
2023/10/28 07:23:08;;;;;;;16.77;3.00;;;;;;;14.37;93.22;99163.16;5066997;28;20056;-65
2023/10/28 07:25:36;;;;;;;14.63;2.60;;;;;;;14.24;93.01;99167.31;5073008;28;20048;-65
2023/10/28 07:28:12;;;;;;;10.80;2.22;;;;;;;13.96;93.11;99172.47;5071902;28;20150;-63
2023/10/28 07:30:50;;;;;;;11.07;2.53;;;;;;;14.09;93.61;99168.28;5071396;28;20045;-63
2023/10/28 07:33:21;;;;;;;14.70;2.80;;;;;;;14.48;96.44;99172.41;5068132;28;20423;-63
2023/10/28 07:35:48;;;;;;;12.43;2.22;;;;;;;14.33;91.86;99179.72;5069067;28;20049;-64
2023/10/28 07:38:17;;;;;;;12.45;2.20;;;;;;;14.31;91.53;99186.84;5074044;28;20059;-63
2023/10/28 07:40:44;;;;;;;11.13;2.20;;;;;;;14.15;92.18;99195.28;5073945;28;20049;-62
2023/10/28 07:43:12;;;;;;;12.63;2.22;;;;;;;14.20;92.11;99205.25;5054055;28;20048;-62
2023/10/28 07:45:40;;;;;;;14.63;2.42;;;;;;;14.23;92.51;99207.25;5072610;28;20045;-64
2023/10/28 07:48:11;;;;;;;12.27;2.65;;;;;;;14.18;92.75;99204.81;5072913;28;20053;-64
2023/10/28 07:50:39;;;;;;;13.30;2.97;;;;;;;14.30;92.89;99207.38;5071391;28;20049;-64
2023/10/28 07:53:06;;;;;;;12.73;2.72;;;;;;;14.30;91.34;99221.22;5075364;28;20048;-65
2023/10/28 07:55:34;;;;;;;9.98;1.90;;;;;;;14.32;92.40;99205.03;5070623;28;20063;-65
2023/10/28 07:58:02;;;;;;;14.90;2.55;;;;;;;14.31;91.80;99225.63;5079310;28;20063;-63
2023/10/28 08:00:29;;;;;;;11.82;2.35;;;;;;;14.47;91.54;99215.16;5071690;28;20440;-64
2023/10/28 08:02:57;;;;;;;13.05;2.88;;;;;;;14.41;91.93;99213.88;5078182;28;20056;-65
2023/10/28 08:05:26;;;;;;;13.93;2.22;;;;;;;14.46;90.87;99214.34;5075757;28;20052;-63
2023/10/28 08:07:53;;;;;;;12.13;2.30;;;;;;;14.43;90.80;99225.38;5078864;28;20052;-63
2023/10/28 08:10:24;;;;;;;15.00;2.58;;;;;;;14.39;90.90;99219.00;5084424;28;20048;-63
2023/10/28 08:12:53;;;;;;;14.77;2.55;;;;;;;14.40;92.09;99221.38;5068052;28;20079;-64
2023/10/28 08:15:20;;;;;;;13.32;2.22;;;;;;;14.51;92.60;99221.53;5079060;28;20049;-64
2023/10/28 08:17:48;;;;;;;15.30;3.17;;;;;;;14.56;92.26;99218.44;5076507;28;20537;-64
2023/10/28 08:20:15;;;;;;;12.00;2.38;;;;;;;14.71;91.63;99213.88;5082355;28;20055;-64
2023/10/28 08:22:44;;;;;;;16.58;2.97;;;;;;;14.43;90.67;99219.84;5086065;28;20048;-62
2023/10/28 08:25:17;;;;;;;16.70;3.92;;;;;;;14.58;91.24;99224.38;5078535;28;20047;-64
2023/10/28 08:27:47;;;;;;;15.23;3.20;;;;;;;14.67;91.49;99222.13;5074919;28;20055;-63
2023/10/28 08:30:16;;;;;;;15.93;3.58;;;;;;;14.67;91.29;99216.59;5073016;28;20056;-64
2023/10/28 08:32:44;;;;;;;14.10;3.22;;;;;;;14.61;90.54;99221.66;5077871;28;20407;-63
2023/10/28 08:35:12;;;;;;;12.38;2.60;;;;;;;14.65;91.12;99218.94;5080320;28;20056;-63
2023/10/28 08:37:40;;;;;;;10.73;2.60;;;;;;;14.63;90.49;99219.31;5076741;28;20053;-64
2023/10/28 08:40:16;;;;;;;10.68;2.90;;;;;;;14.44;91.37;99210.34;5073216;28;20051;-63
2023/10/28 08:42:44;;;;;;;10.13;2.25;;;;;;;14.62;91.84;99206.66;5081346;28;20051;-65
2023/10/28 08:45:12;;;;;;;12.02;2.45;;;;;;;14.68;91.01;99207.09;5077956;28;20732;-63
2023/10/28 08:47:40;;;;;;;18.77;2.67;;;;;;;14.72;89.69;99198.81;5056937;28;20052;-63
2023/10/28 08:50:08;;;;;;;9.75;2.45;;;;;;;14.74;90.21;99180.66;5072618;28;20059;-63
2023/10/28 08:52:36;;;;;;;10.27;2.03;;;;;;;14.69;90.48;99192.09;5076608;28;20056;-64
2023/10/28 08:55:04;;;;;;;10.00;2.03;;;;;;;14.60;90.34;99188.78;5075756;28;20052;-63
2023/10/28 08:57:34;;;;;;;11.15;3.00;;;;;;;14.89;90.05;99187.16;5075427;28;20048;-68
2023/10/28 09:00:11;;;;;;;14.43;6.93;;;;;;;14.78;89.84;99183.47;5078137;28;20053;-63
2023/10/28 09:02:48;;;;;;;9.35;2.58;;;;;;;14.85;89.35;99184.34;5072959;28;20498;-65
2023/10/28 09:05:20;;;;;;;10.82;2.10;;;;;;;14.68;90.26;99184.16;5081679;28;20047;-64
2023/10/28 09:07:48;;;;;;;8.98;2.00;;;;;;;14.77;89.95;99181.88;5073369;28;20115;-57
2023/10/28 09:10:16;;;;;;;11.40;1.90;;;;;;;14.79;89.89;99185.84;5072555;28;20459;-55
2023/10/28 09:12:44;;;;;;;8.43;1.90;;;;;;;14.83;88.98;99185.91;5073788;28;20391;-55
2023/10/28 09:15:11;;;;;;;15.05;1.92;;;;;;;14.99;90.36;99175.41;5082431;28;20056;-54
2023/10/28 09:17:39;;;;;;;9.52;1.95;;;;;;;15.31;89.54;99174.53;5066932;28;20531;-55
2023/10/28 09:20:10;;;;;;;7.65;2.45;;;;;;;15.16;87.99;99172.81;5074741;28;20052;-55
2023/10/28 09:22:46;;;;;;;6.13;1.75;;;;;;;15.10;88.97;99157.69;5073745;28;20059;-55
2023/10/28 09:25:16;;;;;;;10.00;2.30;;;;;;;15.05;87.76;99166.34;5070024;28;20044;-58
2023/10/28 09:27:45;;;;;;;8.95;2.00;;;;;;;15.00;88.59;99169.47;5074061;28;20052;-56
2023/10/28 09:30:13;;;;;;;10.50;2.05;;;;;;;15.09;88.30;99172.72;5073477;28;20048;-55
2023/10/28 09:32:40;;;;;;;8.90;1.60;;;;;;;14.80;88.56;99170.03;5077619;28;20044;-58
2023/10/28 09:35:08;;;;;;;6.03;1.52;;;;;;;15.00;88.59;99179.75;5076808;28;20074;-55
2023/10/28 09:37:37;;;;;;;8.35;1.60;;;;;;;14.98;88.26;99166.28;5073721;28;20407;-58
2023/10/28 09:40:06;;;;;;;5.20;1.38;;;;;;;14.96;89.11;99165.84;5074167;28;20048;-60
2023/10/28 09:42:35;;;;;;;5.05;1.58;;;;;;;14.85;88.89;99170.50;5072536;28;20067;-58
2023/10/28 09:45:09;;;;;;;4.80;1.50;;;;;;;15.00;88.65;99161.16;5077887;28;20044;-57
2023/10/28 09:47:43;;;;;;;7.13;1.52;;;;;;;15.14;88.07;99164.06;5073519;28;20044;-55
2023/10/28 09:50:13;;;;;;;5.38;1.42;;;;;;;15.08;87.68;99156.47;5080894;28;20047;-56
2023/10/28 09:52:44;;;;;;;5.50;1.50;;;;;;;15.13;87.66;99147.81;5072122;28;20048;-58
2023/10/28 09:55:13;;;;;;;7.18;1.92;;;;;;;15.08;88.65;99142.63;5068734;28;20332;-60
2023/10/28 09:57:42;;;;;;;7.63;1.70;;;;;;;15.15;87.64;99140.69;5070864;28;20055;-56
2023/10/28 10:00:16;;;;;;;6.38;1.27;;;;;;;15.09;87.41;99141.41;5068203;28;20056;-56
2023/10/28 10:03:03;;;;;;;5.85;1.30;;;;;;;15.21;86.72;99141.13;5068187;28;20045;-51
2023/10/28 10:05:36;;;;;;;6.10;1.50;;;;;;;15.29;86.25;99148.38;5064986;28;20063;-57
2023/10/28 10:08:04;;;;;;;5.72;1.77;;;;;;;15.40;85.88;99138.16;5070859;28;20068;-57
2023/10/28 10:10:42;;;;;;;8.50;2.22;;;;;;;15.33;85.77;99147.22;5070666;28;20048;-54
2023/10/28 10:13:10;;;;;;;14.98;7.82;;;;;;;15.46;85.78;99154.06;5071984;28;20063;-55
2023/10/28 10:15:39;;;;;;;8.75;3.35;;;;;;;15.46;84.98;99150.53;5057560;28;20083;-57
2023/10/28 10:18:21;;;;;;;9.67;3.40;;;;;;;15.59;84.24;99149.03;5054308;28;20397;-57
2023/10/28 10:20:49;;;;;;;6.72;2.70;;;;;;;15.77;84.06;99169.41;5089520;28;20049;-55
2023/10/28 10:23:34;;;;;;;7.60;1.80;;;;;;;15.62;84.09;99184.38;5071543;28;20048;-56
2023/10/28 10:26:01;;;;;;;6.75;1.60;;;;;;;15.52;83.28;99185.03;5069504;28;20064;-57
2023/10/28 10:28:29;;;;;;;7.68;3.08;;;;;;;15.50;83.83;99199.31;5075761;28;20060;-56
2023/10/28 10:30:59;;;;;;;6.97;1.73;;;;;;;15.77;82.24;99211.84;5071779;28;20048;-52
2023/10/28 10:33:27;;;;;;;;;;;;;;;15.65;82.62;99212.16;5054193;28;20044;-54
2023/10/28 10:35:54;;;;;;;5.55;1.90;;;;;;;15.75;82.63;99210.63;5068925;28;20287;-56
2023/10/28 10:38:29;;;;;;;5.28;1.60;;;;;;;15.65;82.82;99219.69;5067485;28;20044;-57
2023/10/28 10:40:58;;;;;;;6.53;1.55;;;;;;;15.47;82.99;99207.59;5082841;28;20044;-57
2023/10/28 10:43:30;;;;;;;7.70;1.90;;;;;;;15.50;83.10;99210.41;5066212;28;20411;-61
2023/10/28 10:46:01;;;;;;;7.80;1.77;;;;;;;15.55;83.14;99212.06;5070035;28;20688;-55
2023/10/28 10:48:33;;;;;;;4.93;1.30;;;;;;;15.54;82.74;99194.59;5066761;28;20045;-58
2023/10/28 10:51:00;;;;;;;8.40;2.03;;;;;;;15.56;82.03;99186.69;5068459;28;20051;-58
2023/10/28 10:53:27;;;;;;;6.50;1.38;;;;;;;15.62;82.39;99176.03;5077899;28;20302;-54
2023/10/28 10:55:55;;;;;;;5.22;1.27;;;;;;;15.54;81.93;99168.81;5075534;28;20056;-56
2023/10/28 10:58:22;;;;;;;4.97;1.67;;;;;;;15.59;81.95;99168.47;5075407;28;20052;-58
2023/10/28 11:00:54;;;;;;;7.43;1.77;;;;;;;15.73;81.32;99163.81;5074777;28;20051;-55
2023/10/28 11:03:24;;;;;;;3.88;1.50;;;;;;;15.64;81.09;99177.22;5073288;28;20044;-57
2023/10/28 11:05:52;;;;;;;;;;;;;;;15.86;81.05;99160.75;5066661;28;20059;-57
2023/10/28 11:08:19;;;;;;;4.80;1.38;;;;;;;16.23;79.04;99173.28;5076343;28;19920;-53
2023/10/28 11:10:47;;;;;;;10.75;1.40;;;;;;;15.97;79.24;99172.72;5052045;28;20064;-53
2023/10/28 11:13:14;;;;;;;4.15;1.00;;;;;;;15.90;78.61;99169.91;5070154;28;20523;-55
2023/10/28 11:15:41;;;;;;;3.83;1.13;;;;;;;15.96;78.61;99166.38;5071451;28;20045;-53
2023/10/28 11:18:09;;;;;;;6.25;1.20;;;;;;;15.75;79.32;99171.75;5066656;28;20053;-56
2023/10/28 11:20:37;;;;;;;6.10;1.50;;;;;;;15.87;78.92;99162.31;5069570;28;20071;-57
2023/10/28 11:23:04;;;;;;;4.60;1.30;;;;;;;15.82;78.43;99154.34;5071411;28;20047;-58
2023/10/28 11:25:35;;;;;;;6.68;1.30;;;;;;;15.99;77.56;99154.47;5071483;28;20049;-58
2023/10/28 11:28:07;;;;;;;3.55;0.95;;;;;;;15.95;77.39;99163.97;5074088;28;20040;-57
2023/10/28 11:30:35;;;;;;;4.65;0.90;;;;;;;15.78;77.57;99169.00;5076513;28;20122;-53
2023/10/28 11:33:07;;;;;;;5.63;1.20;;;;;;;15.87;78.07;99178.97;5073040;28;20048;-56